Time;durP1;ratioP1;P1;durP2;ratioP2;P2;SDS_P1;SDS_P2;PMS_P1;PMS_P2;Temp;Humidity;BMP_temperature;BMP_pressure;BME280_temperature;BME280_humidity;BME280_pressure;Samples;Min_cycle;Max_cycle;Signal;HPM_P1;HPM_P2
2022/06/10 00:00:46;;;;;;;24.33;6.20;;;;;;;22.76;51.17;99054.81;5014795;28;20077;-70
2022/06/10 00:03:15;;;;;;;16.67;5.80;;;;;;;22.75;51.11;99053.22;5014372;28;20049;-71
2022/06/10 00:05:47;;;;;;;20.33;5.90;;;;;;;22.69;51.22;99049.25;5033725;28;20136;-70
2022/06/10 00:08:18;;;;;;;32.78;8.55;;;;;;;22.67;51.18;99056.56;5032390;28;20045;-70
2022/06/10 00:10:46;;;;;;;26.02;7.47;;;;;;;22.63;51.16;99067.97;5032462;28;20045;-70
2022/06/10 00:13:13;;;;;;;22.58;6.88;;;;;;;22.61;51.32;99064.72;5034192;28;20144;-72
2022/06/10 00:15:41;;;;;;;31.05;8.73;;;;;;;22.60;51.30;99063.13;5033880;28;20057;-72
2022/06/10 00:18:08;;;;;;;27.30;6.68;;;;;;;22.61;51.22;99059.06;5031238;28;20091;-71
2022/06/10 00:20:39;;;;;;;38.05;7.15;;;;;;;22.56;51.20;99062.38;5014011;28;20112;-72
2022/06/10 00:23:07;;;;;;;18.25;6.60;;;;;;;22.55;51.36;99059.94;5014328;28;20132;-71
2022/06/10 00:25:36;;;;;;;19.83;7.13;;;;;;;22.57;51.40;99069.66;5013557;28;20129;-72
2022/06/10 00:28:04;;;;;;;31.92;8.15;;;;;;;22.55;51.51;99065.63;5013945;28;20084;-71
2022/06/10 00:30:33;;;;;;;23.20;7.93;;;;;;;22.51;51.59;99068.53;5013931;28;20054;-71
2022/06/10 00:33:00;;;;;;;21.63;7.32;;;;;;;22.49;51.60;99072.94;5013568;28;20525;-71
2022/06/10 00:35:28;;;;;;;18.45;8.35;;;;;;;22.52;51.48;99081.47;5013493;28;20425;-71
2022/06/10 00:37:55;;;;;;;21.67;6.38;;;;;;;22.53;51.37;99090.78;5011932;28;20054;-71
2022/06/10 00:40:29;;;;;;;16.67;7.00;;;;;;;22.51;51.09;99084.72;5013323;28;20077;-72
2022/06/10 00:42:57;;;;;;;14.90;5.57;;;;;;;22.44;50.85;99082.72;5014207;28;20057;-71
2022/06/10 00:45:45;;;;;;;16.35;6.15;;;;;;;22.40;51.03;99089.66;5013524;28;20141;-71
2022/06/10 00:48:17;;;;;;;12.55;6.25;;;;;;;22.32;50.97;99086.09;5013773;28;20061;-72
2022/06/10 00:50:45;;;;;;;11.52;5.75;;;;;;;22.27;51.11;99089.44;5013518;28;20499;-70
2022/06/10 00:53:15;;;;;;;15.23;5.55;;;;;;;22.26;50.82;99093.47;5015992;28;20061;-72
2022/06/10 00:55:45;;;;;;;16.27;7.97;;;;;;;22.22;51.06;99097.56;5032037;28;20045;-71
2022/06/10 00:58:23;;;;;;;15.80;5.40;;;;;;;22.22;50.98;99106.06;5033062;28;20053;-70
2022/06/10 01:00:50;;;;;;;8.90;5.43;;;;;;;22.18;50.94;99106.13;5033151;28;20140;-70
2022/06/10 01:03:17;;;;;;;14.88;5.68;;;;;;;22.20;51.01;99109.31;5032781;28;20061;-70
2022/06/10 01:05:44;;;;;;;12.25;5.43;;;;;;;22.21;50.86;99107.28;5031713;28;20452;-71
2022/06/10 01:08:15;;;;;;;7.78;5.65;;;;;;;22.19;50.79;99115.41;5032884;28;20053;-71
2022/06/10 01:11:06;;;;;;;11.50;5.57;;;;;;;22.12;50.91;99116.31;5031423;28;20053;-71
2022/06/10 01:13:56;;;;;;;13.23;5.78;;;;;;;22.05;51.25;99116.34;5032613;28;20147;-71
2022/06/10 01:16:32;;;;;;;;;;;;;;;21.93;51.53;99107.59;5033585;28;20054;-72
2022/06/10 01:19:27;;;;;;;8.15;4.97;;;;;;;22.05;50.97;99116.34;5023039;28;19925;-70
2022/06/10 01:22:09;;;;;;;10.98;5.45;;;;;;;22.15;50.85;99117.47;5011895;28;20054;-70
2022/06/10 01:25:02;;;;;;;7.07;5.13;;;;;;;22.17;51.17;99118.66;5031666;28;20053;-70
2022/06/10 01:28:06;;;;;;;10.50;6.07;;;;;;;22.12;51.65;99121.16;5032925;28;20048;-70
2022/06/10 01:30:55;;;;;;;14.07;5.68;;;;;;;22.12;52.31;99127.63;5032403;28;20045;-68
2022/06/10 01:33:48;;;;;;;7.82;5.15;;;;;;;22.08;52.88;99129.69;5032346;28;20054;-68
2022/06/10 01:36:40;;;;;;;7.82;4.90;;;;;;;21.97;53.30;99131.81;5032324;28;20259;-68
2022/06/10 01:39:11;;;;;;;14.95;5.38;;;;;;;21.87;53.62;99138.38;5032339;28;20042;-69
2022/06/10 01:42:05;;;;;;;9.68;6.00;;;;;;;21.85;53.53;99135.16;5032332;28;20049;-69
2022/06/10 01:44:50;;;;;;;25.67;6.10;;;;;;;21.78;53.87;99128.72;5032110;28;20052;-69
2022/06/10 01:47:41;;;;;;;8.75;4.90;;;;;;;21.74;54.17;99134.44;5032193;28;20069;-69
2022/06/10 01:50:21;;;;;;;9.50;4.82;;;;;;;21.77;54.14;99119.44;5032281;28;20467;-69
2022/06/10 01:52:54;;;;;;;15.02;6.28;;;;;;;21.80;55.09;99103.66;5032354;28;20526;-68
2022/06/10 01:55:27;;;;;;;12.20;5.65;;;;;;;21.85;55.50;99100.38;5030880;28;20045;-68
2022/06/10 01:58:00;;;;;;;13.55;6.13;;;;;;;21.83;55.93;99103.63;5032113;28;20049;-69
2022/06/10 02:00:31;;;;;;;8.18;5.55;;;;;;;21.81;56.64;99108.88;5032167;28;20416;-68
2022/06/10 02:03:04;;;;;;;9.82;5.45;;;;;;;21.80;56.92;99106.47;5031920;28;20151;-69
2022/06/10 02:05:39;;;;;;;8.63;5.78;;;;;;;21.76;57.20;99109.31;5031745;28;20107;-69
2022/06/10 02:08:14;;;;;;;9.25;6.50;;;;;;;21.76;57.39;99111.38;5031860;28;20041;-69
2022/06/10 02:10:51;;;;;;;21.27;5.93;;;;;;;21.80;57.68;99115.78;5032338;28;20128;-70
2022/06/10 02:13:25;;;;;;;12.60;6.65;;;;;;;21.84;57.96;99121.44;5031961;28;20045;-71
2022/06/10 02:16:17;;;;;;;15.63;6.20;;;;;;;21.84;58.57;99133.53;5034493;28;20147;-71
2022/06/10 02:18:50;;;;;;;10.55;6.03;;;;;;;21.79;59.37;99136.81;5028605;28;20115;-70
2022/06/10 02:21:26;;;;;;;11.40;6.60;;;;;;;21.79;59.23;99131.16;5016261;28;20420;-70
2022/06/10 02:24:03;;;;;;;14.93;6.35;;;;;;;21.78;59.34;99143.72;5016528;28;20057;-71
2022/06/10 02:26:34;;;;;;;12.02;6.63;;;;;;;21.71;59.60;99152.25;5016108;28;20416;-71
2022/06/10 02:29:08;;;;;;;9.60;5.60;;;;;;;21.74;59.45;99145.78;5016190;28;20509;-69
2022/06/10 02:31:41;;;;;;;16.30;6.00;;;;;;;21.81;59.08;99145.72;5015848;28;20540;-69
2022/06/10 02:34:09;;;;;;;10.98;6.40;;;;;;;21.94;58.91;99138.31;5015794;28;20057;-69
2022/06/10 02:36:59;;;;;;;11.25;5.68;;;;;;;22.00;58.69;99147.16;5015768;28;20054;-68
2022/06/10 02:39:32;;;;;;;7.45;5.38;;;;;;;21.95;58.26;99147.59;5029515;28;20412;-68
2022/06/10 02:42:10;;;;;;;14.43;5.85;;;;;;;21.98;58.10;99143.94;5036423;28;20053;-68
2022/06/10 02:44:59;;;;;;;8.38;4.95;;;;;;;21.92;58.26;99146.44;5035809;28;20501;-68
2022/06/10 02:47:40;;;;;;;10.30;5.20;;;;;;;21.91;58.09;99144.00;5035544;28;20140;-69
2022/06/10 02:50:09;;;;;;;8.02;5.10;;;;;;;21.95;58.20;99145.59;5035256;28;20099;-69
2022/06/10 02:52:37;;;;;;;9.47;5.10;;;;;;;21.96;58.09;99143.56;5035500;28;20136;-69
2022/06/10 02:55:06;;;;;;;10.02;4.90;;;;;;;21.96;58.04;99152.84;5035238;28;20371;-68
2022/06/10 03:03:29;;;;;;;7.85;5.30;;;;;;;21.91;58.40;99161.00;5035750;28;20053;-69
2022/06/10 03:06:20;;;;;;;14.02;5.95;;;;;;;21.88;58.57;99159.00;5035207;28;20136;-69
2022/06/10 03:08:59;;;;;;;7.32;5.20;;;;;;;21.85;58.58;99149.34;5035198;28;20068;-68
2022/06/10 03:11:47;;;;;;;8.57;6.13;;;;;;;21.85;58.55;99140.84;5035443;28;20061;-69
2022/06/10 03:14:24;;;;;;;9.15;5.40;;;;;;;21.77;58.75;99125.13;5035000;28;20057;-68
2022/06/10 03:17:16;;;;;;;8.30;5.05;;;;;;;21.78;58.72;99129.53;5033590;28;20465;-69
2022/06/10 03:20:03;;;;;;;7.05;4.85;;;;;;;21.71;58.77;99129.59;5019202;28;20510;-68
2022/06/10 03:22:35;;;;;;;9.00;4.82;;;;;;;21.76;58.67;99129.16;5013767;28;20476;-69
2022/06/10 03:25:16;;;;;;;5.80;4.82;;;;;;;21.81;58.73;99133.56;5014916;28;20046;-68
2022/06/10 03:27:47;;;;;;;12.43;5.35;;;;;;;21.84;58.55;99135.59;5013547;28;20501;-68
2022/06/10 03:30:18;;;;;;;6.43;4.78;;;;;;;21.99;58.36;99137.06;5014471;28;20060;-68
2022/06/10 03:32:54;;;;;;;7.68;5.05;;;;;;;22.21;57.75;99142.13;5014211;28;20066;-68
2022/06/10 03:35:33;;;;;;;5.10;4.50;;;;;;;22.35;57.24;99141.16;5015008;28;20057;-68
2022/06/10 03:38:03;;;;;;;8.65;5.13;;;;;;;22.29;57.42;99135.13;5015120;28;20374;-68
2022/06/10 03:40:32;;;;;;;5.63;4.45;;;;;;;22.27;57.45;99134.78;5015007;28;20049;-68
2022/06/10 03:43:01;;;;;;;7.75;5.03;;;;;;;22.23;57.55;99136.03;5015052;28;20100;-69
2022/06/10 03:45:35;;;;;;;6.97;5.13;;;;;;;22.28;57.36;99135.56;5014618;28;20501;-67
2022/06/10 03:48:03;;;;;;;11.40;6.38;;;;;;;22.37;56.99;99139.50;5029388;28;20069;-69
2022/06/10 03:50:38;;;;;;;6.53;4.70;;;;;;;22.48;56.64;99148.72;5014795;28;20466;-69
2022/06/10 03:53:06;;;;;;;9.68;5.20;;;;;;;22.45;56.54;99143.06;5014392;28;20418;-69
2022/06/10 03:55:33;;;;;;;9.85;5.28;;;;;;;22.45;56.67;99152.38;5014925;28;20093;-69
2022/06/10 03:58:00;;;;;;;8.52;5.20;;;;;;;22.54;56.47;99149.88;5024434;28;20063;-69
2022/06/10 04:00:28;;;;;;;6.43;5.03;;;;;;;22.64;56.17;99146.13;5034135;28;20053;-69
2022/06/10 04:02:55;;;;;;;10.63;5.72;;;;;;;22.73;55.88;99152.09;5034232;28;20132;-67
2022/06/10 04:05:22;;;;;;;10.38;5.03;;;;;;;22.82;55.37;99149.53;5034033;28;20182;-69
2022/06/10 04:07:50;;;;;;;6.75;5.07;;;;;;;22.87;55.02;99151.94;5033983;28;20060;-69
2022/06/10 04:10:21;;;;;;;14.48;5.18;;;;;;;23.04;54.55;99158.59;5034050;28;20059;-68
2022/06/10 04:12:48;;;;;;;9.52;5.10;;;;;;;23.26;53.87;99157.91;5034070;28;20060;-68
2022/06/10 04:15:16;;;;;;;11.25;4.82;;;;;;;23.41;53.56;99152.03;5032683;28;20053;-68
2022/06/10 04:17:45;;;;;;;9.35;5.35;;;;;;;23.42;53.36;99143.09;5032343;28;20044;-69
2022/06/10 04:20:21;;;;;;;6.65;4.80;;;;;;;23.39;53.26;99150.41;5014100;28;20046;-68
2022/06/10 04:22:49;;;;;;;8.90;5.78;;;;;;;23.52;52.88;99147.00;5014080;28;20054;-69
2022/06/10 04:25:16;;;;;;;7.97;5.47;;;;;;;23.60;52.88;99148.50;5014228;28;20417;-69
2022/06/10 04:27:43;;;;;;;9.93;5.13;;;;;;;23.66;52.47;99144.75;5013700;28;20615;-68
2022/06/10 04:30:32;;;;;;;13.60;4.82;;;;;;;23.74;51.91;99148.28;5013837;28;20526;-68
2022/06/10 04:33:01;;;;;;;10.52;5.88;;;;;;;23.87;51.57;99146.44;5013690;28;20149;-68
2022/06/10 04:35:28;;;;;;;16.60;5.47;;;;;;;24.05;51.22;99144.13;5013356;28;20095;-68
2022/06/10 04:37:57;;;;;;;8.48;5.10;;;;;;;24.18;50.54;99147.94;5013311;28;20507;-69
2022/06/10 04:40:33;;;;;;;11.15;5.80;;;;;;;24.36;50.19;99146.41;5012002;28;20058;-72
2022/06/10 04:43:00;;;;;;;9.03;5.70;;;;;;;24.42;49.98;99155.25;5013525;28;20543;-71
2022/06/10 04:45:34;;;;;;;10.18;4.75;;;;;;;24.53;49.61;99155.84;5013374;28;20049;-72
2022/06/10 04:48:01;;;;;;;12.45;6.10;;;;;;;24.55;49.62;99159.06;5027567;28;20045;-72
2022/06/10 04:50:29;;;;;;;13.15;5.88;;;;;;;24.55;49.57;99154.19;5033039;28;20045;-71
2022/06/10 04:52:57;;;;;;;9.02;5.28;;;;;;;24.65;49.08;99158.06;5033166;28;20448;-71
2022/06/10 04:55:27;;;;;;;8.27;5.68;;;;;;;24.72;49.32;99160.78;5033222;28;20416;-72
2022/06/10 04:57:55;;;;;;;6.57;4.93;;;;;;;24.92;48.39;99155.88;5032885;28;20050;-72
2022/06/10 05:00:32;;;;;;;9.75;6.22;;;;;;;24.92;48.49;99161.59;5032589;28;20049;-73
2022/06/10 05:03:01;;;;;;;8.45;5.55;;;;;;;24.88;48.16;99153.13;5033250;28;20049;-72
2022/06/10 05:05:29;;;;;;;7.57;5.68;;;;;;;24.99;48.11;99142.31;5032667;28;20053;-72
2022/06/10 05:07:56;;;;;;;14.55;5.78;;;;;;;25.08;47.78;99158.81;5032591;28;20535;-72
2022/06/10 05:10:24;;;;;;;9.23;5.15;;;;;;;25.06;47.23;99158.44;5032713;28;20534;-72
2022/06/10 05:12:51;;;;;;;9.15;5.80;;;;;;;25.01;47.52;99154.06;5032958;28;20051;-71
2022/06/10 05:15:20;;;;;;;5.82;4.93;;;;;;;25.08;47.27;99158.81;5032312;28;20057;-71
2022/06/10 05:17:49;;;;;;;8.02;5.70;;;;;;;25.20;47.06;99160.19;5032133;28;20037;-72
2022/06/10 05:20:22;;;;;;;12.10;5.32;;;;;;;25.50;46.56;99169.31;5033016;28;20060;-72
2022/06/10 05:22:49;;;;;;;7.07;5.07;;;;;;;25.62;46.17;99173.50;5031567;28;20099;-71
2022/06/10 05:25:16;;;;;;;6.30;5.20;;;;;;;25.66;46.20;99163.63;5032763;28;20496;-72
2022/06/10 05:27:44;;;;;;;9.15;5.47;;;;;;;25.75;45.64;99168.72;5032902;28;20140;-72
2022/06/10 05:30:16;;;;;;;6.20;4.68;;;;;;;25.88;45.08;99170.44;5032313;28;20053;-72
2022/06/10 05:32:43;;;;;;;15.77;5.78;;;;;;;25.95;44.67;99170.25;5032390;28;20061;-72
2022/06/10 05:35:10;;;;;;;7.80;5.28;;;;;;;26.15;44.34;99164.50;5032325;28;20076;-73
2022/06/10 05:37:37;;;;;;;11.30;5.65;;;;;;;26.27;43.86;99173.13;5032629;28;20077;-71
2022/06/10 05:40:19;;;;;;;9.05;5.55;;;;;;;26.35;43.71;99168.81;5032168;28;20045;-72
2022/06/10 05:42:46;;;;;;;11.02;6.25;;;;;;;26.61;43.14;99184.84;5032413;28;20053;-73
2022/06/10 05:45:17;;;;;;;10.77;5.40;;;;;;;26.91;42.98;99177.13;5032297;28;20049;-72
2022/06/10 05:47:49;;;;;;;9.30;5.95;;;;;;;27.03;42.83;99176.38;5032239;28;20132;-72
2022/06/10 05:50:38;;;;;;;14.00;5.80;;;;;;;27.32;42.43;99188.59;5035741;28;20088;-72
2022/06/10 05:53:08;;;;;;;16.27;5.47;;;;;;;27.31;42.17;99178.41;5036572;28;20135;-72
2022/06/10 05:55:37;;;;;;;9.60;6.10;;;;;;;27.42;41.77;99178.91;5036569;28;20114;-72
2022/06/10 05:58:08;;;;;;;9.45;5.13;;;;;;;27.72;41.15;99178.34;5036660;28;20052;-73
2022/06/10 06:00:35;;;;;;;10.07;5.40;;;;;;;27.91;40.46;99180.19;5036424;28;20107;-73
2022/06/10 06:03:03;;;;;;;6.43;4.97;;;;;;;27.84;39.97;99180.41;5036129;28;20137;-72
2022/06/10 06:05:31;;;;;;;8.32;5.63;;;;;;;28.13;39.22;99172.53;5036182;28;20144;-73
2022/06/10 06:07:58;;;;;;;7.75;5.22;;;;;;;28.47;38.56;99166.88;5036408;28;20140;-72
2022/06/10 06:10:27;;;;;;;8.38;5.50;;;;;;;29.13;37.18;99172.25;5036152;28;20056;-73
2022/06/10 06:12:55;;;;;;;9.00;6.15;;;;;;;31.36;34.03;99182.56;5035992;28;20075;-73
2022/06/10 06:15:24;;;;;;;7.32;5.97;;;;;;;32.27;31.82;99175.25;5036202;28;20104;-73
2022/06/10 06:17:52;;;;;;;9.10;6.13;;;;;;;30.76;34.27;99187.34;5035622;28;20049;-73
2022/06/10 06:20:21;;;;;;;9.20;5.82;;;;;;;29.35;36.71;99184.53;5016474;28;20581;-72
2022/06/10 06:22:49;;;;;;;8.18;5.72;;;;;;;29.21;36.76;99182.19;5016166;28;20504;-72
2022/06/10 06:25:17;;;;;;;8.05;5.80;;;;;;;29.69;36.05;99181.53;5015853;28;20068;-71
2022/06/10 06:27:48;;;;;;;11.02;6.22;;;;;;;29.58;36.23;99181.16;5015866;28;20050;-73
2022/06/10 06:30:41;;;;;;;9.93;6.00;;;;;;;29.61;35.93;99183.09;5015597;28;20064;-72
2022/06/10 06:33:09;;;;;;;11.60;6.32;;;;;;;29.44;36.51;99172.28;5015371;28;20064;-72
2022/06/10 06:35:38;;;;;;;8.07;5.80;;;;;;;29.22;36.60;99175.19;5015732;28;20136;-72
2022/06/10 06:38:06;;;;;;;13.85;5.80;;;;;;;29.10;37.00;99173.19;5015668;28;20413;-72
2022/06/10 06:40:33;;;;;;;11.95;6.40;;;;;;;29.01;37.32;99164.50;5016012;28;20493;-61
2022/06/10 06:43:00;;;;;;;7.85;5.80;;;;;;;28.78;37.49;99162.09;5016263;28;20057;-61
2022/06/10 06:45:28;;;;;;;11.65;6.32;;;;;;;29.37;36.54;99170.50;5015324;28;20100;-61
2022/06/10 06:48:03;;;;;;;13.63;5.95;;;;;;;30.28;34.95;99166.00;5027880;28;20052;-61
2022/06/10 06:50:33;;;;;;;6.78;5.85;;;;;;;31.81;32.15;99170.94;5035120;28;20111;-61
2022/06/10 06:53:00;;;;;;;8.95;5.85;;;;;;;34.61;28.14;99159.75;5035823;28;20056;-62
2022/06/10 06:55:36;;;;;;;6.90;5.90;;;;;;;34.09;28.64;99166.56;5035240;28;20111;-62
2022/06/10 06:58:05;;;;;;;9.52;5.45;;;;;;;34.85;26.93;99169.00;5035096;28;20088;-61
2022/06/10 07:00:32;;;;;;;8.88;5.90;;;;;;;33.54;29.08;99171.38;5034415;28;20412;-62
2022/06/10 07:02:59;;;;;;;9.27;4.75;;;;;;;33.85;28.03;99168.78;5035247;28;20564;-61
2022/06/10 07:05:26;;;;;;;8.93;5.47;;;;;;;36.16;25.20;99171.72;5034984;28;20550;-62
2022/06/10 07:07:53;;;;;;;11.30;5.60;;;;;;;40.09;21.23;99170.31;5035234;28;20045;-61
2022/06/10 07:10:21;;;;;;;8.25;5.00;;;;;;;43.02;17.69;99170.56;5034967;28;20084;-61
2022/06/10 07:12:48;;;;;;;7.25;5.05;;;;;;;43.24;17.07;99168.53;5034866;28;20037;-62
2022/06/10 07:15:15;;;;;;;6.38;5.20;;;;;;;43.49;17.54;99166.91;5035125;28;20073;-61
2022/06/10 07:17:42;;;;;;;12.05;6.15;;;;;;;45.74;15.40;99174.56;5034876;28;20049;-63
2022/06/10 07:20:20;;;;;;;6.57;5.22;;;;;;;45.56;15.13;99172.75;5015718;28;20153;-62
2022/06/10 07:22:47;;;;;;;5.68;4.63;;;;;;;41.03;19.21;99172.25;5015182;28;20415;-62
2022/06/10 07:25:15;;;;;;;6.23;4.63;;;;;;;38.21;21.82;99170.38;5013473;28;20516;-62
2022/06/10 07:27:43;;;;;;;13.18;5.13;;;;;;;39.07;20.62;99172.03;5014836;28;20354;-61
2022/06/10 07:30:15;;;;;;;8.95;5.30;;;;;;;41.98;17.88;99182.06;5014749;28;20054;-61
2022/06/10 07:32:45;;;;;;;7.32;5.60;;;;;;;44.37;15.59;99182.34;5014729;28;20062;-61
2022/06/10 07:35:13;;;;;;;8.32;5.45;;;;;;;47.42;13.63;99181.41;5015021;28;20054;-62
2022/06/10 07:37:41;;;;;;;8.23;5.15;;;;;;;49.27;12.21;99172.31;5014374;28;20049;-62
2022/06/10 07:41:56;;;;;;;;;;;;;;;50.37;11.82;99177.16;5015123;28;20517;-61
2022/06/10 07:43:14;;;;;;;7.32;5.10;;;;;;;47.60;13.48;99170.56;5014405;28;19925;-61
2022/06/10 07:45:42;;;;;;;6.72;5.18;;;;;;;46.02;13.85;99170.72;5014663;28;20049;-62
2022/06/10 07:48:11;;;;;;;5.97;4.85;;;;;;;45.54;13.66;99171.75;5031679;28;20052;-62
2022/06/10 07:50:38;;;;;;;8.15;5.90;;;;;;;46.80;13.18;99180.56;5034403;28;20045;-61
2022/06/10 07:53:07;;;;;;;11.55;4.78;;;;;;;48.29;11.52;99166.59;5033993;28;20374;-62
2022/06/10 07:55:35;;;;;;;5.45;4.60;;;;;;;46.31;12.06;99170.00;5032457;28;20440;-70
2022/06/10 07:58:08;;;;;;;4.68;4.28;;;;;;;44.76;14.12;99173.28;5018556;28;20042;-76
2022/06/10 08:00:37;;;;;;;5.20;4.63;;;;;;;41.81;16.56;99174.88;5031339;28;20416;-74
2022/06/10 08:03:21;;;;;;;9.13;4.75;;;;;;;38.65;19.76;99164.50;5019014;28;20809;-74
2022/06/10 08:05:48;;;;;;;7.97;4.97;;;;;;;37.66;21.19;99174.06;5033719;28;20520;-74
2022/06/10 08:08:18;;;;;;;7.20;5.43;;;;;;;39.28;19.35;99174.03;5032501;28;20144;-74
2022/06/10 08:10:46;;;;;;;8.27;4.85;;;;;;;43.65;15.57;99177.47;5032169;28;20087;-76
2022/06/10 08:13:13;;;;;;;6.78;4.78;;;;;;;46.45;12.52;99178.59;5032673;28;20046;-74
2022/06/10 08:15:42;;;;;;;11.90;6.07;;;;;;;48.80;11.35;99175.59;5032900;28;20053;-75
2022/06/10 08:18:11;;;;;;;7.70;3.70;;;;;;;48.02;11.66;99168.53;5030176;28;20496;-74
2022/06/10 08:23:28;;;;;;;9.02;3.78;;;;;;;48.77;10.50;99167.94;5013861;28;20049;-70
2022/06/10 08:25:57;;;;;;;4.80;3.78;;;;;;;50.58;9.14;99168.47;5013717;28;20081;-70
2022/06/10 08:28:25;;;;;;;13.80;4.30;;;;;;;52.16;8.12;99168.97;5013445;28;20056;-70
2022/06/10 08:30:52;;;;;;;7.28;3.58;;;;;;;50.48;9.18;99164.69;5013944;28;20128;-70
2022/06/10 08:33:19;;;;;;;7.45;3.80;;;;;;;50.76;8.95;99173.69;5013527;28;20160;-71
2022/06/10 08:35:46;;;;;;;6.60;3.70;;;;;;;52.68;7.92;99177.22;5013798;28;20054;-69
2022/06/10 08:38:16;;;;;;;9.40;3.20;;;;;;;53.99;7.30;99181.94;5013642;28;20481;-69
2022/06/10 08:40:58;;;;;;;6.55;3.45;;;;;;;53.13;6.81;99170.03;5013704;28;20140;-70
2022/06/10 08:43:50;;;;;;;5.78;3.50;;;;;;;51.52;7.44;99170.03;5013603;28;20046;-70
2022/06/10 08:46:29;;;;;;;3.58;3.20;;;;;;;51.22;7.56;99164.72;5013243;28;20046;-70
2022/06/10 08:49:06;;;;;;;8.60;4.73;;;;;;;51.74;7.81;99165.81;5013519;28;20501;-70
2022/06/10 08:51:47;;;;;;;4.20;3.70;;;;;;;52.26;7.66;99175.66;5031087;28;20132;-70
2022/06/10 08:54:27;;;;;;;5.13;3.60;;;;;;;53.39;6.80;99178.59;5033092;28;20073;-70
2022/06/10 08:56:59;;;;;;;5.05;3.65;;;;;;;54.03;6.87;99164.34;5033288;28;20057;-69
2022/06/10 08:59:36;;;;;;;4.07;3.40;;;;;;;55.11;6.19;99171.31;5033218;28;20148;-70
2022/06/10 09:02:07;;;;;;;4.13;3.60;;;;;;;55.81;5.38;99174.88;5033311;28;20057;-70
2022/06/10 09:04:55;;;;;;;8.15;3.78;;;;;;;56.21;5.27;99173.47;5031483;28;20080;-70
2022/06/10 09:07:40;;;;;;;7.93;3.38;;;;;;;56.93;4.99;99172.34;5032971;28;20085;-71
2022/06/10 09:10:19;;;;;;;12.23;4.00;;;;;;;56.12;5.30;99166.25;5032852;28;20050;-70
2022/06/10 09:13:05;;;;;;;13.98;9.00;;;;;;;55.27;5.91;99163.41;5032797;28;20050;-70
2022/06/10 09:15:33;;;;;;;;;;;;;;;53.95;6.52;99157.88;5033382;28;20051;-70
2022/06/10 09:18:08;;;;;;;7.22;3.65;;;;;;;51.71;7.60;99164.09;5028786;28;19983;-69
2022/06/10 09:20:50;;;;;;;3.28;2.85;;;;;;;50.91;7.63;99154.84;5012509;28;20017;-70
2022/06/10 09:23:38;;;;;;;4.35;3.42;;;;;;;52.18;7.31;99163.16;5029793;28;20417;-71
2022/06/10 09:26:10;;;;;;;4.85;3.30;;;;;;;54.54;6.15;99154.31;5026990;28;20049;-71
2022/06/10 09:28:58;;;;;;;7.13;3.50;;;;;;;55.24;5.87;99152.78;5022268;28;20067;-74
2022/06/10 09:31:53;;;;;;;5.70;4.03;;;;;;;55.51;5.72;99161.91;5015676;28;20073;-71
2022/06/10 09:34:33;;;;;;;4.13;3.08;;;;;;;54.12;6.34;99151.53;5020478;28;20061;-69
2022/06/10 09:37:42;;;;;;;5.65;3.30;;;;;;;49.21;9.15;99154.06;5021576;28;20053;-76
2022/06/10 09:43:21;;;;;;;7.68;3.00;;;;;;;40.78;14.69;99138.59;5025573;28;20566;-70
2022/06/10 09:46:16;;;;;;;4.68;2.88;;;;;;;38.06;17.39;99146.56;5024353;28;20041;-73
2022/06/10 09:48:49;;;;;;;10.25;3.42;;;;;;;36.44;19.29;99152.44;5018203;28;20523;-73
2022/06/10 09:51:38;;;;;;;13.68;3.70;;;;;;;35.41;20.56;99142.38;5016818;28;20104;-68
2022/06/10 09:54:32;;;;;;;8.40;3.65;;;;;;;34.54;21.55;99134.16;5025951;28;20073;-74
2022/06/10 09:57:23;;;;;;;4.93;3.55;;;;;;;33.25;22.59;99138.31;5016912;28;20054;-68
2022/06/10 10:00:11;;;;;;;6.88;3.65;;;;;;;32.51;23.43;99135.75;5027739;28;20041;-68
2022/06/10 10:03:11;;;;;;;4.32;3.55;;;;;;;32.14;23.55;99145.84;5015306;28;20037;-69
2022/06/10 10:06:02;;;;;;;7.07;3.35;;;;;;;31.68;24.41;99135.81;5022051;28;20045;-79
2022/06/10 10:09:09;;;;;;;4.32;3.65;;;;;;;31.37;24.75;99146.78;5028009;28;20556;-68
2022/06/10 10:12:05;;;;;;;7.70;3.88;;;;;;;30.81;25.02;99135.03;5030657;28;20049;-69
2022/06/10 10:14:56;;;;;;;7.72;3.58;;;;;;;30.59;26.18;99145.81;5023026;28;20432;-70
2022/06/10 10:17:32;;;;;;;6.53;4.03;;;;;;;30.28;26.33;99142.28;5021086;28;20068;-69
2022/06/10 10:20:17;;;;;;;6.65;4.10;;;;;;;30.50;26.22;99140.06;5029522;28;20098;-68
2022/06/10 10:23:17;;;;;;;4.45;3.55;;;;;;;30.27;26.44;99140.66;5027209;28;20791;-69
2022/06/10 10:25:46;;;;;;;6.45;3.33;;;;;;;30.15;26.73;99145.22;5026454;28;20061;-78
2022/06/10 10:28:35;;;;;;;9.40;3.70;;;;;;;29.95;26.56;99139.09;5025540;28;20042;-77
2022/06/10 10:31:15;;;;;;;8.63;3.72;;;;;;;29.69;26.76;99141.41;5017556;28;20524;-69
2022/06/10 10:33:44;;;;;;;5.75;3.55;;;;;;;29.67;27.24;99141.09;5012988;28;20148;-69
2022/06/10 10:39:29;;;;;;;5.20;3.45;;;;;;;29.52;27.24;99142.91;5035483;28;20045;-70
2022/06/10 10:42:01;;;;;;;;;;;;;;;29.27;27.28;99140.19;5036019;28;20066;-69
2022/06/10 10:44:54;;;;;;;9.73;4.57;;;;;;;29.24;27.75;99140.31;5035458;28;19931;-69
2022/06/10 10:47:29;;;;;;;9.90;4.63;;;;;;;29.18;28.01;99131.53;5034732;28;20049;-70
2022/06/10 10:49:59;;;;;;;7.20;3.70;;;;;;;29.08;27.84;99140.53;5035016;28;20041;-64
2022/06/10 10:52:27;;;;;;;5.28;3.45;;;;;;;28.85;27.98;99138.91;5035582;28;20597;-64
2022/06/10 10:55:05;;;;;;;5.73;3.50;;;;;;;28.61;28.16;99134.91;5035247;28;20459;-65
2022/06/10 10:57:37;;;;;;;5.55;3.35;;;;;;;28.47;28.65;99140.34;5035230;28;20413;-65
2022/06/10 11:00:07;;;;;;;5.53;3.80;;;;;;;28.53;28.83;99141.34;5035713;28;20053;-65
2022/06/10 11:02:41;;;;;;;7.90;3.10;;;;;;;28.54;28.87;99146.63;5035109;28;20077;-66
2022/06/10 11:05:52;;;;;;;4.55;3.40;;;;;;;28.20;29.05;99143.69;5035694;28;20136;-64
2022/06/10 11:08:28;;;;;;;4.03;3.38;;;;;;;28.20;28.91;99138.78;5034808;28;20045;-64
2022/06/10 11:11:01;;;;;;;8.35;3.45;;;;;;;28.40;28.67;99138.50;5035146;28;20115;-63
2022/06/10 11:13:46;;;;;;;7.50;3.70;;;;;;;28.40;28.79;99147.06;5035260;28;20064;-63
2022/06/10 11:16:23;;;;;;;5.57;3.40;;;;;;;28.52;28.07;99140.53;5035161;28;20050;-65
2022/06/10 11:18:52;;;;;;;6.80;3.20;;;;;;;28.43;28.13;99141.25;5035226;28;20523;-65
2022/06/10 11:21:23;;;;;;;4.43;3.33;;;;;;;28.24;28.59;99145.16;5034952;28;20485;-66
2022/06/10 11:23:55;;;;;;;5.88;3.30;;;;;;;28.38;28.41;99138.16;5035268;28;20136;-65
2022/06/10 11:26:25;;;;;;;4.80;2.88;;;;;;;28.39;27.98;99139.75;5034970;28;20469;-66
2022/06/10 11:29:01;;;;;;;4.40;3.03;;;;;;;28.40;28.10;99152.81;5034488;28;20523;-65
2022/06/10 11:31:41;;;;;;;5.07;3.00;;;;;;;28.35;28.52;99144.78;5034841;28;20139;-65
2022/06/10 11:34:18;;;;;;;6.30;3.17;;;;;;;28.35;28.09;99144.78;5034278;28;20088;-65
2022/06/10 11:36:52;;;;;;;8.20;3.30;;;;;;;28.37;28.40;99145.13;5034156;28;20057;-65
2022/06/10 11:39:31;;;;;;;4.00;3.60;;;;;;;28.27;28.61;99149.19;5037529;28;20400;-66
2022/06/10 11:42:19;;;;;;;6.57;3.45;;;;;;;28.24;29.30;99144.38;5034868;28;20068;-64
2022/06/10 11:45:01;;;;;;;6.68;3.50;;;;;;;28.30;29.01;99151.13;5034027;28;20084;-65
2022/06/10 11:47:47;;;;;;;6.07;3.40;;;;;;;28.36;28.97;99143.56;5034122;28;20528;-65
2022/06/10 11:50:33;;;;;;;6.75;3.13;;;;;;;28.37;29.48;99145.13;5034212;28;20519;-66
2022/06/10 11:53:16;;;;;;;9.38;3.33;;;;;;;28.37;28.93;99145.94;5034043;28;20419;-65
2022/06/10 11:55:46;;;;;;;4.13;3.00;;;;;;;28.42;28.90;99138.84;5034560;28;20053;-66
2022/06/10 12:01:26;;;;;;;10.02;3.35;;;;;;;28.52;29.08;99139.72;5034352;28;20061;-65
2022/06/10 12:04:11;;;;;;;4.55;3.00;;;;;;;28.47;29.25;99134.63;5033869;28;20053;-65
2022/06/10 12:06:49;;;;;;;7.18;2.85;;;;;;;28.32;28.82;99131.41;5034133;28;20050;-65
2022/06/10 12:09:27;;;;;;;4.45;3.15;;;;;;;28.26;28.58;99121.81;5033697;28;20087;-64
2022/06/10 12:12:01;;;;;;;6.03;2.55;;;;;;;28.14;28.95;99134.09;5033895;28;20130;-64
2022/06/10 12:14:34;;;;;;;4.35;2.83;;;;;;;28.00;29.40;99129.66;5036406;28;20051;-65
2022/06/10 12:17:04;;;;;;;6.50;2.88;;;;;;;28.00;29.09;99135.38;5033846;28;20576;-65
2022/06/10 12:19:38;;;;;;;7.60;3.13;;;;;;;28.00;29.19;99128.84;5030539;28;20046;-62
2022/06/10 12:22:09;;;;;;;7.53;2.95;;;;;;;28.03;28.94;99123.00;5022907;28;20054;-63
2022/06/10 12:24:36;;;;;;;9.15;3.20;;;;;;;27.96;29.20;99113.88;5022837;28;20568;-67